Gambell Airport Gambell US
ICAO: PAGM
IATA:
Category: Medium
Scheduled Services:

Elevation: 27 ft
TransAlt. 0 ft.

Airport Communications:
AWOS 3:125.9
ANCHORAGE CNTR:132.2
CTAF:122.7
NOME RDO:122
TWEB:36.9

PAGM Zoom In..

Runways:

(A) RW 16 length 4499 ft width 96 ft
---- / hdg 160

(B) RW 34 length 4499 ft width 96 ft
---- / hdg 340

Location; PAGM
Day. 08 / Time. 04.05 Zulu
* Altimeter: 30.01
* Temperature: -10° c. -14°f.
* Wind from: 250° Speed 10 kn.
Dewpoint: -14° c.
Visibility: 5 Statute Miles.
Clouds: Few 1000 ft.
Clouds: Overcast 1600 ft.
Conditions: Light Snow.

PAGM 080405Z AUTO 25010KT 5SM -SN FEW010 OVC016 M10/M14 A3001 RMK AO2 P0000 FZRANO


Wind From 250°
Speed 10 kn.

 
 
jpsmedia worldairports.se 2020   terms of use